Terminal Aerodrome Forecast
Issued by NWS Wilmington, NC

Home | Current Version | Previous Version | Text Only | Print | Product List | Glossary On
Versions: 1 2 3 4 5 6 7 8 9 10 11 12 13 14 15 16 17 18 19
390
FTUS42 KILM 121733 CCA
TAFILM
TAF COR
KILM 121733Z 1218/1318 36008KT P6SM SCT010 BKN012 OVC030
      TEMPO 1218/1220 5SM -RA OVC008
     FM122000 35007KT P6SM OVC010
     FM130200 31006KT P6SM BKN020
     FM130900 30004KT P6SM SCT100
     FM131400 34016G24KT P6SM SKC=

USA.gov is the U.S. government's official web portal to all federal, state and local government web resources and services.